Châlons-Vatry Air Base

Airport
ICAO code: 
LFOK
IATA Code: 
XCR
Summary
ICAO Region: 
EUR
Territory: 
Location: 
, Champagne-Ardenne
Serving: 
Chalons
Elevation: 
587 ft
Coordinates: 
Aerial View: 
48° 46' 33.859" N, 4° 11' 4.171" E
Metar
Observation
LFOK 020300Z AUTO 28008KT 9999 FEW008 BKN014 OVC020 05/05 Q1003 TEMPO 3000 SHRA BKN013CB
Station
Chalons-Vatry
Date/Time
2021-12-02 03:00:00
Wind direction
280°
Wind speed
08 kts
Lowest cloud amount
few clouds
Temperature
5°C
Dew point
5°C
Humidity
100%
QNH
1003 hPa
Weather condition
n/a

Runways

Designator Length Width Surface Rops
10/28 3860 45 CON Yes/Yes
Airport map: 
Aerial View: 

SKYbrary Partners:

Safety knowledge contributed by: